Global Endeavor — 3EOJ9 — position and weather

sailwx.info

Track history (hours):
 
Tides and Currents Weather Stations Pressure Air Temp Water Temp Dewpoint Dewpoint Depression Visibility Wind Speed Wind Dir Waves Ship Positions

Global Endeavor

Last reported at 2016-Jun-16 05:31 UTC. Time now 2016-Jun-28 07:55 UTC.
Position N 48°31' W 126°14'.
Warning: this ship's position is 12 days out of date.

Length 175 m; draft 9.5 m.

Type: Cargo ship. MMSI: 356619000.

Date/timePositionNaut miles runAvg speedWind from/ knotsBaromVisibWave heightAir tempDewpointWater temp
2016-Jun-16 05:31N 48°31' W 126°14'1010.2
2016-Jun-16 04:33N 48°31' W 125°59'1010.4
2016-Jun-16 03:33N 48°31' W 125°44'1110.9
2016-Jun-16 02:33N 48°31' W 125°27'1110.9
2016-Jun-16 01:33N 48°31' W 125°11'1111.3
2016-Jun-16 00:33N 48°31' W 124°54'1111.0
2016-Jun-15 23:33N 48°29' W 124°37'1111.0
2016-Jun-15 22:33N 48°25' W 124°22'1110.9
2016-Jun-15 21:33N 48°20' W 124°07'1111.2
2016-Jun-15 20:33N 48°17' W 123°51'1111.1
2016-Jun-15 19:33N 48°16' W 123°34'10 9.8
2016-Jun-15 18:33N 48°10' W 123°23'1111.1
2016-Jun-15 17:34N 48°13' W 123°07'1413.4
2016-Jun-15 16:33N 48°11' W 122°47'1413.9
2016-Jun-15 15:33N 47°59' W 122°36'1413.6
2016-Jun-15 14:33N 47°47' W 122°26'1110.6
2016-Jun-15 13:33N 47°37' W 122°24'9 9.2
2016-Jun-15 12:33N 47°29' W 122°30'1414.1
2016-Jun-15 11:33N 47°15' W 122°34'10 9.2
2016-Jun-15 10:26N 47°11' W 122°48'8 7.0
2016-Jun-15 09:19N 47°05' W 122°55'2 0.6
2016-Jun-15 06:23N 47°03' W 122°54'0 0.0
2016-Jun-14 21:23N 47°03' W 122°54'0 0.0
2016-Jun-14 17:14N 47°03' W 122°54'0 0.0
2016-Jun-14 15:29N 47°03' W 122°54'0 0.0
2016-Jun-14 08:17N 47°03' W 122°54'0 0.0
2016-Jun-13 12:32N 47°03' W 122°54'0 0.0
2016-Jun-12 19:14N 47°03' W 122°54'0 0.0
2016-Jun-12 16:26N 47°03' W 122°54'0 0.0
2016-Jun-12 15:26N 47°03' W 122°54'0 0.0
2016-Jun-12 14:32N 47°03' W 122°54'0 0.0
2016-Jun-12 13:26N 47°03' W 122°54'0 0.0
2016-Jun-12 12:32N 47°03' W 122°54'0 0.0
2016-Jun-12 11:20N 47°03' W 122°54'0 0.0
2016-Jun-12 09:26N 47°03' W 122°54'0 0.0
2016-Jun-11 12:29N 47°03' W 122°54'0 0.0
2016-Jun-11 08:20N 47°03' W 122°54'0 0.0
2016-Jun-11 07:08N 47°03' W 122°54'0 0.0
2016-Jun-11 06:32N 47°03' W 122°54'0 0.0
2016-Jun-11 01:08N 47°03' W 122°54'0 0.0
2016-Jun-10 23:23N 47°03' W 122°54'0 0.0
2016-Jun-10 21:23N 47°03' W 122°54'0 0.0
2016-Jun-10 20:05N 47°03' W 122°54'0 0.0
2016-Jun-10 19:32N 47°03' W 122°54'0 0.0
2016-Jun-10 18:29N 47°03' W 122°54'0 0.0
2016-Jun-10 17:29N 47°03' W 122°54'0 0.0
2016-Jun-10 16:08N 47°03' W 122°54'0 0.0
2016-Jun-10 15:32N 47°03' W 122°54'0 0.0
2016-Jun-10 06:32N 47°03' W 122°54'0 0.0
2016-Jun-10 05:32N 47°03' W 122°54'0 0.0
2016-Jun-08 06:12N 47°03' W 122°54'6 3.6
2016-Jun-08 04:33N 47°09' W 122°54'10 9.7
2016-Jun-08 03:33N 47°08' W 122°40'1313.3
2016-Jun-08 02:33N 47°21' W 122°33'1413.5
2016-Jun-08 01:33N 47°34' W 122°28'6 6.2
2016-Jun-08 00:33N 47°40' W 122°28'1514.9
2016-Jun-07 23:34N 47°55' W 122°30'1616.4
2016-Jun-07 22:33N 48°09' W 122°43'1515.0
2016-Jun-07 21:33N 48°12' W 123°05'1312.9
2016-Jun-07 20:33N 48°10' W 123°24'1110.7
2016-Jun-07 19:33N 48°13' W 123°40'1010.4
2016-Jun-07 18:33N 48°13' W 123°55'1111.1
2016-Jun-07 17:33N 48°18' W 124°10'1110.7
2016-Jun-07 16:33N 48°23' W 124°25'1110.5
2016-Jun-07 15:33N 48°27' W 124°40'1010.4
2016-Jun-07 14:33N 48°28' W 124°55'1211.9
2016-Jun-07 13:33N 48°29' W 125°13'1111.3
2016-Jun-07 12:33N 48°29' W 125°30'1111.1
2016-Jun-07 11:33N 48°29' W 125°47'1111.3
2016-Jun-07 10:33N 48°29' W 126°04'1111.3
2016-Jun-07 09:33N 48°29' W 126°21'1111.5
2016-Jun-07 08:33N 48°29' W 126°39'1211.7
2016-Jun-07 07:33N 48°29' W 126°56'1212.1
2016-Jun-07 06:33N 48°28' W 127°15'1111.4
2016-Jun-07 05:33N 48°28' W 127°32'1211.9
2016-Jun-07 04:32N 48°27' W 127°50'10 9.2
2016-Jun-07 03:28N 48°27' W 128°05'  
Track history (hours):
 
Tides and Currents Weather Stations Pressure Air Temp Water Temp Dewpoint Dewpoint Depression Visibility Wind Speed Wind Dir Waves Ship Positions

Global Endeavor

Last reported at 2016-Jun-16 05:31 UTC. Time now 2016-Jun-28 07:55 UTC.
Position N 48°31' W 126°14'.
Warning: this ship's position is 12 days out of date.

Length 175 m; draft 9.5 m.

Type: Cargo ship. MMSI: 356619000.

Date/timePositionNaut miles runAvg speedWind from/ knotsBaromVisibWave heightAir tempDewpointWater temp
2016-Jun-16 05:31N 48°31' W 126°14'1010.2
2016-Jun-16 04:33N 48°31' W 125°59'1010.4
2016-Jun-16 03:33N 48°31' W 125°44'1110.9
2016-Jun-16 02:33N 48°31' W 125°27'1110.9
2016-Jun-16 01:33N 48°31' W 125°11'1111.3
2016-Jun-16 00:33N 48°31' W 124°54'1111.0
2016-Jun-15 23:33N 48°29' W 124°37'1111.0
2016-Jun-15 22:33N 48°25' W 124°22'1110.9
2016-Jun-15 21:33N 48°20' W 124°07'1111.2
2016-Jun-15 20:33N 48°17' W 123°51'1111.1
2016-Jun-15 19:33N 48°16' W 123°34'10 9.8
2016-Jun-15 18:33N 48°10' W 123°23'1111.1
2016-Jun-15 17:34N 48°13' W 123°07'1413.4
2016-Jun-15 16:33N 48°11' W 122°47'1413.9
2016-Jun-15 15:33N 47°59' W 122°36'1413.6
2016-Jun-15 14:33N 47°47' W 122°26'1110.6
2016-Jun-15 13:33N 47°37' W 122°24'9 9.2
2016-Jun-15 12:33N 47°29' W 122°30'1414.1
2016-Jun-15 11:33N 47°15' W 122°34'10 9.2
2016-Jun-15 10:26N 47°11' W 122°48'8 7.0
2016-Jun-15 09:19N 47°05' W 122°55'2 0.6
2016-Jun-15 06:23N 47°03' W 122°54'0 0.0
2016-Jun-14 21:23N 47°03' W 122°54'0 0.0
2016-Jun-14 17:14N 47°03' W 122°54'0 0.0
2016-Jun-14 15:29N 47°03' W 122°54'0 0.0
2016-Jun-14 08:17N 47°03' W 122°54'0 0.0
2016-Jun-13 12:32N 47°03' W 122°54'0 0.0
2016-Jun-12 19:14N 47°03' W 122°54'0 0.0
2016-Jun-12 16:26N 47°03' W 122°54'0 0.0
2016-Jun-12 15:26N 47°03' W 122°54'0 0.0
2016-Jun-12 14:32N 47°03' W 122°54'0 0.0
2016-Jun-12 13:26N 47°03' W 122°54'0 0.0
2016-Jun-12 12:32N 47°03' W 122°54'0 0.0
2016-Jun-12 11:20N 47°03' W 122°54'0 0.0
2016-Jun-12 09:26N 47°03' W 122°54'0 0.0
2016-Jun-11 12:29N 47°03' W 122°54'0 0.0
2016-Jun-11 08:20N 47°03' W 122°54'0 0.0
2016-Jun-11 07:08N 47°03' W 122°54'0 0.0
2016-Jun-11 06:32N 47°03' W 122°54'0 0.0
2016-Jun-11 01:08N 47°03' W 122°54'0 0.0
2016-Jun-10 23:23N 47°03' W 122°54'0 0.0
2016-Jun-10 21:23N 47°03' W 122°54'0 0.0
2016-Jun-10 20:05N 47°03' W 122°54'0 0.0
2016-Jun-10 19:32N 47°03' W 122°54'0 0.0
2016-Jun-10 18:29N 47°03' W 122°54'0 0.0
2016-Jun-10 17:29N 47°03' W 122°54'0 0.0
2016-Jun-10 16:08N 47°03' W 122°54'0 0.0
2016-Jun-10 15:32N 47°03' W 122°54'0 0.0
2016-Jun-10 06:32N 47°03' W 122°54'0 0.0
2016-Jun-10 05:32N 47°03' W 122°54'0 0.0
2016-Jun-08 06:12N 47°03' W 122°54'6 3.6
2016-Jun-08 04:33N 47°09' W 122°54'10 9.7
2016-Jun-08 03:33N 47°08' W 122°40'1313.3
2016-Jun-08 02:33N 47°21' W 122°33'1413.5
2016-Jun-08 01:33N 47°34' W 122°28'6 6.2
2016-Jun-08 00:33N 47°40' W 122°28'1514.9
2016-Jun-07 23:34N 47°55' W 122°30'1616.4
2016-Jun-07 22:33N 48°09' W 122°43'1515.0
2016-Jun-07 21:33N 48°12' W 123°05'1312.9
2016-Jun-07 20:33N 48°10' W 123°24'1110.7
2016-Jun-07 19:33N 48°13' W 123°40'1010.4
2016-Jun-07 18:33N 48°13' W 123°55'1111.1
2016-Jun-07 17:33N 48°18' W 124°10'1110.7
2016-Jun-07 16:33N 48°23' W 124°25'1110.5
2016-Jun-07 15:33N 48°27' W 124°40'1010.4
2016-Jun-07 14:33N 48°28' W 124°55'1211.9
2016-Jun-07 13:33N 48°29' W 125°13'1111.3
2016-Jun-07 12:33N 48°29' W 125°30'1111.1
2016-Jun-07 11:33N 48°29' W 125°47'1111.3
2016-Jun-07 10:33N 48°29' W 126°04'1111.3
2016-Jun-07 09:33N 48°29' W 126°21'1111.5
2016-Jun-07 08:33N 48°29' W 126°39'1211.7
2016-Jun-07 07:33N 48°29' W 126°56'1212.1
2016-Jun-07 06:33N 48°28' W 127°15'1111.4
2016-Jun-07 05:33N 48°28' W 127°32'1211.9
2016-Jun-07 04:32N 48°27' W 127°50'10 9.2
2016-Jun-07 03:28N 48°27' W 128°05'  

Dump ship's entire track history